createdAt,value
2022-11-25T00:01:38.964Z,98811.91
2022-11-25T00:04:24.141Z,98813.91
2022-11-25T00:07:09.461Z,98811.16
2022-11-25T00:09:54.706Z,98812.69
2022-11-25T00:12:40.065Z,98817.53
2022-11-25T00:15:25.464Z,98800.91
2022-11-25T00:18:10.739Z,98815.09
2022-11-25T00:20:56.048Z,98806.47
2022-11-25T00:23:41.385Z,98810.41
2022-11-25T00:26:28.939Z,98814.41
2022-11-25T00:29:14.516Z,98810.06
2022-11-25T00:32:00.322Z,98807.28
2022-11-25T00:34:45.606Z,98801.75
2022-11-25T00:37:32.352Z,98807.66
2022-11-25T00:40:17.725Z,98806.91
2022-11-25T00:43:22.188Z,98812.44
2022-11-25T00:46:07.596Z,98808.13
2022-11-25T00:48:52.899Z,98807.34
2022-11-25T00:51:38.505Z,98812.88
2022-11-25T00:54:23.904Z,98806.53
2022-11-25T00:57:09.148Z,98809.31
2022-11-25T00:59:54.427Z,98810.53
2022-11-25T01:02:39.853Z,98809.75
2022-11-25T01:05:25.474Z,98805.41
2022-11-25T01:08:12.330Z,98812.94
2022-11-25T01:11:05.746Z,98808.16
2022-11-25T01:13:59.343Z,98810.56
2022-11-25T01:16:46.478Z,98812.94
2022-11-25T01:19:31.823Z,98805.81
2022-11-25T01:22:17.991Z,98804.25
2022-11-25T01:25:03.294Z,98815.34
2022-11-25T01:27:48.403Z,98814.56
2022-11-25T01:30:38.288Z,98816.56
2022-11-25T01:33:26.377Z,98807.44
2022-11-25T01:36:14.195Z,98812.97
2022-11-25T01:39:01.451Z,98811.44
2022-11-25T01:41:47.168Z,98812.63
2022-11-25T01:44:33.170Z,98811.44
2022-11-25T01:47:23.530Z,98810.66
2022-11-25T01:50:12.707Z,98805.13
2022-11-25T01:52:58.543Z,98806.31
2022-11-25T01:55:50.563Z,98810.28
2022-11-25T01:58:38.781Z,98813.06
2022-11-25T02:01:24.654Z,98809.50
2022-11-25T02:04:13.153Z,98807.53
2022-11-25T02:07:05.125Z,98811.06
2022-11-25T02:09:51.242Z,98808.72
2022-11-25T02:12:40.495Z,98812.28
2022-11-25T02:15:28.453Z,98811.47
2022-11-25T02:18:14.021Z,98810.72
2022-11-25T02:20:59.267Z,98805.16
2022-11-25T02:24:08.975Z,98809.16
2022-11-25T02:26:54.567Z,98809.94
2022-11-25T02:29:41.212Z,98809.94
2022-11-25T02:32:26.764Z,98805.56
2022-11-25T02:35:21.467Z,98800.47
2022-11-25T02:38:24.029Z,98810.75
2022-11-25T02:41:17.303Z,98809.19
2022-11-25T02:44:06.521Z,98808.84
2022-11-25T02:46:52.439Z,98814.75
2022-11-25T02:49:37.778Z,98805.66
2022-11-25T02:52:24.066Z,98802.09
2022-11-25T02:55:09.599Z,98806.84
2022-11-25T02:57:55.109Z,98804.06
2022-11-25T03:00:42.601Z,98807.66
2022-11-25T03:03:28.287Z,98806.06
2022-11-25T03:06:13.695Z,98808.84
2022-11-25T03:08:59.156Z,98805.28
2022-11-25T03:12:03.959Z,98811.59
2022-11-25T03:14:49.127Z,98813.19
2022-11-25T03:17:34.615Z,98819.16
2022-11-25T03:20:20.398Z,98815.16
2022-11-25T03:23:06.683Z,98815.97
2022-11-25T03:25:52.320Z,98815.16
2022-11-25T03:28:38.193Z,98818.72
2022-11-25T03:31:23.575Z,98815.97
2022-11-25T03:34:09.350Z,98819.50
2022-11-25T03:36:55.242Z,98820.28
2022-11-25T03:39:43.413Z,98822.69
2022-11-25T03:42:29.743Z,98823.47
2022-11-25T03:45:15.771Z,98825.81
2022-11-25T03:48:03.434Z,98825.81
2022-11-25T03:50:49.482Z,98820.28
2022-11-25T03:53:35.171Z,98827.38
2022-11-25T03:56:23.243Z,98823.84
2022-11-25T03:59:09.099Z,98825.06
2022-11-25T04:01:54.887Z,98825.06
2022-11-25T04:04:41.493Z,98831.38
2022-11-25T04:07:27.276Z,98830.97
2022-11-25T04:10:14.024Z,98826.97
2022-11-25T04:13:01.208Z,98830.50
2022-11-25T04:15:57.034Z,98826.56
2022-11-25T04:18:42.553Z,98828.19
2022-11-25T04:21:28.070Z,98829.75
2022-11-25T04:24:15.983Z,98841.59
2022-11-25T04:27:02.441Z,98836.88
2022-11-25T04:29:47.915Z,98831.31
2022-11-25T04:32:33.969Z,98838.81
2022-11-25T04:35:19.439Z,98840.81
2022-11-25T04:38:09.792Z,98834.50
2022-11-25T04:40:56.505Z,98838.06
2022-11-25T04:43:42.279Z,98835.28
2022-11-25T04:46:38.210Z,98835.28
2022-11-25T04:49:23.770Z,98845.59
2022-11-25T04:52:08.948Z,98843.59
2022-11-25T04:54:55.187Z,98842.03
2022-11-25T04:57:41.412Z,98839.28
2022-11-25T05:00:28.316Z,98831.38
2022-11-25T05:03:13.880Z,98831.38
2022-11-25T05:05:59.072Z,98840.47
2022-11-25T05:08:44.982Z,98832.91
2022-11-25T05:11:30.795Z,98829.31
2022-11-25T05:14:15.996Z,98835.22
2022-11-25T05:17:08.362Z,98835.97
2022-11-25T05:19:54.549Z,98825.56
2022-11-25T05:22:40.687Z,98828.72
2022-11-25T05:25:30.672Z,98825.16
2022-11-25T05:28:46.737Z,98827.94
2022-11-25T05:31:33.400Z,98832.28
2022-11-25T05:34:19.113Z,98830.69
2022-11-25T05:37:05.452Z,98830.97
2022-11-25T05:39:53.579Z,98829.31
2022-11-25T05:43:01.229Z,98833.19
2022-11-25T05:45:48.722Z,98832.31
2022-11-25T05:48:34.107Z,98833.06
2022-11-25T05:51:19.524Z,98841.72
2022-11-25T05:54:05.044Z,98837.75
2022-11-25T05:56:53.891Z,98848.03
2022-11-25T05:59:59.027Z,98846.44
2022-11-25T06:03:04.656Z,98844.88
2022-11-25T06:05:50.411Z,98858.72
2022-11-25T06:08:38.419Z,98843.66
2022-11-25T06:11:25.602Z,98852.00
2022-11-25T06:14:10.740Z,98853.19
2022-11-25T06:16:57.072Z,98857.19
2022-11-25T06:19:53.476Z,98857.59
2022-11-25T06:22:38.864Z,98854.81
2022-11-25T06:25:25.670Z,98860.00
2022-11-25T06:28:13.185Z,98865.91
2022-11-25T06:31:07.849Z,98871.44
2022-11-25T06:33:58.995Z,98868.31
2022-11-25T06:36:44.367Z,98871.09
2022-11-25T06:39:29.625Z,98873.84
2022-11-25T06:42:14.822Z,98871.88
2022-11-25T06:45:00.246Z,98874.28
2022-11-25T06:47:45.732Z,98875.84
2022-11-25T06:50:31.427Z,98873.09
2022-11-25T06:53:21.188Z,98875.09
2022-11-25T06:56:13.806Z,98881.00
2022-11-25T06:58:59.254Z,98889.31
2022-11-25T07:01:44.660Z,98888.59
2022-11-25T07:04:30.780Z,98893.00
2022-11-25T07:07:16.094Z,98893.00
2022-11-25T07:10:01.463Z,98897.72
2022-11-25T07:12:46.688Z,98899.78
2022-11-25T07:15:34.773Z,98903.34
2022-11-25T07:18:20.372Z,98911.66
2022-11-25T07:21:07.209Z,98906.91
2022-11-25T07:23:52.994Z,98909.25
2022-11-25T07:26:40.284Z,98909.25
2022-11-25T07:32:33.470Z,98914.44
2022-11-25T07:35:18.895Z,98910.84
2022-11-25T07:38:04.315Z,98910.09
2022-11-25T07:40:50.733Z,98913.28
2022-11-25T07:43:36.580Z,98915.25
2022-11-25T07:46:27.050Z,98919.63
2022-11-25T07:49:15.468Z,98916.00
2022-11-25T07:52:02.336Z,98912.03
2022-11-25T07:54:47.828Z,98917.56
2022-11-25T07:57:32.918Z,98923.47
2022-11-25T08:00:18.699Z,98910.03
2022-11-25T08:03:03.928Z,98910.03
2022-11-25T08:05:49.082Z,98905.25
2022-11-25T08:08:35.005Z,98907.25
2022-11-25T08:11:23.580Z,98904.50
2022-11-25T08:14:10.340Z,98911.59
2022-11-25T08:16:55.849Z,98915.16
2022-11-25T08:19:41.290Z,98906.84
2022-11-25T08:22:26.790Z,98914.34
2022-11-25T08:25:12.320Z,98919.50
2022-11-25T08:28:01.184Z,98917.13
2022-11-25T08:30:46.787Z,98913.56
2022-11-25T08:33:32.785Z,98923.03
2022-11-25T08:36:19.957Z,98925.03
2022-11-25T08:39:28.864Z,98920.72
2022-11-25T08:42:12.765Z,98930.59
2022-11-25T08:44:57.987Z,98923.47
2022-11-25T08:47:43.371Z,98929.34
2022-11-25T08:50:28.655Z,98927.81
2022-11-25T08:53:14.842Z,98927.41
2022-11-25T08:56:00.286Z,98911.53
2022-11-25T08:58:45.411Z,98924.25
2022-11-25T09:01:31.436Z,98917.94
2022-11-25T09:04:17.053Z,98913.16
2022-11-25T09:07:04.905Z,98917.94
2022-11-25T09:09:50.522Z,98919.91
2022-11-25T09:12:36.067Z,98917.13
2022-11-25T09:15:21.749Z,98921.47
2022-11-25T09:18:08.841Z,98915.50
2022-11-25T09:20:54.337Z,98914.72
2022-11-25T09:23:39.951Z,98913.94
2022-11-25T09:26:31.265Z,98915.16
2022-11-25T09:29:16.691Z,98911.16
2022-11-25T09:32:02.078Z,98920.25
2022-11-25T09:34:47.472Z,98918.72
2022-11-25T09:37:32.834Z,98919.50
2022-11-25T09:40:47.189Z,98913.56
2022-11-25T09:43:57.073Z,98919.50
2022-11-25T09:46:52.687Z,98916.34
2022-11-25T09:49:48.956Z,98921.91
2022-11-25T09:52:45.989Z,98920.34
2022-11-25T09:55:39.887Z,98921.53
2022-11-25T09:58:34.383Z,98922.75
2022-11-25T10:01:25.128Z,98926.31
2022-11-25T10:04:17.572Z,98929.84
2022-11-25T10:07:04.358Z,98926.72
2022-11-25T10:09:50.482Z,98921.16
2022-11-25T10:12:42.644Z,98918.41
2022-11-25T10:15:34.316Z,98921.16
2022-11-25T10:18:31.938Z,98912.44
2022-11-25T10:21:17.429Z,98920.34
2022-11-25T10:24:05.045Z,98914.81
2022-11-25T10:27:07.734Z,98910.09
2022-11-25T10:30:05.175Z,98904.91
2022-11-25T10:33:05.753Z,98912.03
2022-11-25T10:35:53.225Z,98909.63
2022-11-25T10:38:56.682Z,98911.59
2022-11-25T10:41:56.882Z,98895.41
2022-11-25T10:44:42.356Z,98910.81
2022-11-25T10:47:36.344Z,98909.25
2022-11-25T10:50:25.083Z,98909.63
2022-11-25T10:53:20.156Z,98910.81
2022-11-25T10:56:12.675Z,98906.47
2022-11-25T10:58:58.046Z,98904.84
2022-11-25T11:01:43.447Z,98896.53
2022-11-25T11:04:28.670Z,98897.31
2022-11-25T11:07:14.287Z,98896.53
2022-11-25T11:10:14.645Z,98906.03
2022-11-25T11:13:18.125Z,98896.94
2022-11-25T11:16:03.797Z,98895.75
2022-11-25T11:18:51.083Z,98901.31
2022-11-25T11:21:41.798Z,98894.94
2022-11-25T11:24:38.056Z,98893.00
2022-11-25T11:27:25.012Z,98890.22
2022-11-25T11:30:15.846Z,98887.06
2022-11-25T11:33:25.266Z,98883.09
2022-11-25T11:36:18.884Z,98883.44
2022-11-25T11:39:26.514Z,98877.53
2022-11-25T11:42:40.225Z,98884.22
2022-11-25T11:45:25.556Z,98884.59
2022-11-25T11:48:29.886Z,98888.50
2022-11-25T11:51:55.547Z,98885.25
2022-11-25T11:54:46.416Z,98878.84
2022-11-25T11:57:48.415Z,98871.69
2022-11-25T12:00:46.032Z,98877.16
2022-11-25T12:03:39.078Z,98877.88
2022-11-25T12:06:28.721Z,98877.03
2022-11-25T12:09:20.873Z,98872.97
2022-11-25T12:12:13.876Z,98882.38
2022-11-25T12:15:03.232Z,98879.97
2022-11-25T13:28:04.599Z,98881.75
2022-11-25T13:30:52.712Z,98884.88
2022-11-25T13:33:44.788Z,98880.13
2022-11-25T13:36:51.905Z,98880.88
2022-11-25T13:39:38.734Z,98880.81
2022-11-25T13:42:26.624Z,98880.81
2022-11-25T13:45:32.751Z,98884.38
2022-11-25T13:48:29.459Z,98887.16
2022-11-25T13:51:22.957Z,98886.72
2022-11-25T13:54:18.196Z,98893.06
2022-11-25T13:57:12.454Z,98887.50
2022-11-25T13:59:58.117Z,98896.25
2022-11-25T14:02:45.634Z,98889.50
2022-11-25T14:05:56.221Z,98887.50
2022-11-25T14:08:45.783Z,98892.19
2022-11-25T14:11:56.808Z,98902.53
2022-11-25T14:15:00.489Z,98908.00
2022-11-25T14:18:01.544Z,98909.66
2022-11-25T14:20:52.937Z,98913.63
2022-11-25T14:24:21.231Z,98913.22
2022-11-25T14:27:15.883Z,98921.47
2022-11-25T14:30:08.293Z,98919.91
2022-11-25T14:33:02.529Z,98927.81
2022-11-25T14:35:52.200Z,98943.69
2022-11-25T14:38:45.338Z,98936.91
2022-11-25T14:41:37.191Z,98946.38
2022-11-25T14:44:28.164Z,98949.94
2022-11-25T14:47:13.893Z,98949.94
2022-11-25T14:50:33.013Z,98957.84
2022-11-25T14:53:11.977Z,98960.56
2022-11-25T14:56:00.265Z,98964.88
2022-11-25T14:58:48.584Z,98963.69
2022-11-25T15:01:35.882Z,98960.09
2022-11-25T15:04:24.066Z,98960.91
2022-11-25T15:07:18.503Z,98962.47
2022-11-25T15:10:04.473Z,98966.78
2022-11-25T15:12:53.738Z,98968.38
2022-11-25T15:15:39.276Z,98967.16
2022-11-25T15:18:25.955Z,98963.19
2022-11-25T15:21:14.942Z,98972.22
2022-11-25T15:24:01.553Z,98975.34
2022-11-25T15:26:51.685Z,98976.50
2022-11-25T15:29:42.419Z,98976.84
2022-11-25T15:32:31.903Z,98985.53
2022-11-25T15:35:21.330Z,98989.88
2022-11-25T15:38:43.494Z,98991.88
2022-11-25T15:41:36.841Z,98991.41
2022-11-25T15:44:24.785Z,98993.78
2022-11-25T15:47:23.548Z,98996.91
2022-11-25T15:50:22.926Z,99001.59
2022-11-25T15:53:10.778Z,99010.28
2022-11-25T15:56:01.122Z,99006.31
2022-11-25T15:58:46.690Z,99011.78
2022-11-25T16:01:31.977Z,99007.44
2022-11-25T16:04:21.423Z,99012.22
2022-11-25T16:07:23.640Z,99015.44
2022-11-25T16:10:24.217Z,99018.22
2022-11-25T16:13:22.948Z,99031.75
2022-11-25T16:16:14.945Z,99027.78
2022-11-25T16:19:09.933Z,99031.75
2022-11-25T16:22:01.060Z,99032.53
2022-11-25T16:24:55.945Z,99030.97
2022-11-25T16:27:45.327Z,99036.53
2022-11-25T16:30:30.669Z,99036.53
2022-11-25T16:33:15.800Z,99034.94
2022-11-25T16:36:03.205Z,99037.72
2022-11-25T16:38:54.385Z,99032.97
2022-11-25T16:41:42.093Z,99037.41
2022-11-25T16:44:29.131Z,99038.94
2022-11-25T16:47:15.392Z,99042.94
2022-11-25T16:50:01.158Z,99044.50
2022-11-25T16:52:46.505Z,99050.47
2022-11-25T16:55:32.251Z,99044.50
2022-11-25T16:58:25.419Z,99048.50
2022-11-25T17:01:12.886Z,99052.47
2022-11-25T17:03:58.267Z,99049.72
2022-11-25T17:06:50.581Z,99045.72
2022-11-25T17:09:49.475Z,99048.50
2022-11-25T17:12:36.128Z,99056.50
2022-11-25T17:15:32.340Z,99060.81
2022-11-25T17:18:20.069Z,99056.84
2022-11-25T17:21:05.827Z,99061.19
2022-11-25T17:23:55.129Z,99069.16
2022-11-25T17:26:42.889Z,99066.03
2022-11-25T17:29:35.715Z,99070.03
2022-11-25T17:32:21.506Z,99060.47
2022-11-25T17:35:17.704Z,99074.00
2022-11-25T17:38:14.256Z,99076.41
2022-11-25T17:40:59.744Z,99076.06
2022-11-25T17:43:47.605Z,99083.97
2022-11-25T17:46:33.839Z,99083.56
2022-11-25T17:49:21.087Z,99090.66
2022-11-25T17:52:06.543Z,99084.91
2022-11-25T17:54:52.074Z,99090.19
2022-11-25T17:57:37.775Z,99091.78
2022-11-25T18:00:23.557Z,99097.00
2022-11-25T18:03:13.256Z,99095.06
2022-11-25T18:05:58.604Z,99097.94
2022-11-25T18:08:43.988Z,99096.75
2022-11-25T18:11:29.451Z,99101.50
2022-11-25T18:14:22.138Z,99109.31
2022-11-25T18:17:08.537Z,99110.03
2022-11-25T18:19:55.805Z,99118.00
2022-11-25T18:22:45.467Z,99112.88
2022-11-25T18:25:33.228Z,99118.00
2022-11-25T18:28:25.173Z,99116.50
2022-11-25T18:31:11.554Z,99116.88
2022-11-25T18:33:57.065Z,99116.09
2022-11-25T18:36:43.190Z,99122.00
2022-11-25T18:39:28.871Z,99124.78
2022-11-25T18:42:28.218Z,99130.75
2022-11-25T18:45:22.662Z,99133.03
2022-11-25T18:48:28.460Z,99133.47
2022-11-25T18:51:14.943Z,99151.34
2022-11-25T18:54:00.408Z,99138.69
2022-11-25T18:56:49.904Z,99149.78
2022-11-25T18:59:37.802Z,99155.00
2022-11-25T19:02:23.272Z,99155.34
2022-11-25T19:05:21.520Z,99159.31
2022-11-25T19:08:07.327Z,99161.72
2022-11-25T19:10:53.432Z,99161.72
2022-11-25T19:13:38.960Z,99164.88
2022-11-25T19:16:25.280Z,99172.44
2022-11-25T19:19:15.707Z,99177.56
2022-11-25T19:22:01.595Z,99179.19
2022-11-25T19:24:47.497Z,99179.19
2022-11-25T19:27:38.124Z,99183.19
2022-11-25T19:30:27.433Z,99185.94
2022-11-25T19:33:26.593Z,99185.59
2022-11-25T19:36:24.430Z,99192.78
2022-11-25T19:39:16.820Z,99198.34
2022-11-25T19:42:01.929Z,99206.31
2022-11-25T19:44:47.497Z,99212.28
2022-11-25T19:47:33.051Z,99212.72
2022-11-25T19:50:28.885Z,99217.91
2022-11-25T19:53:17.780Z,99219.16
2022-11-25T19:56:04.848Z,99224.75
2022-11-25T19:58:51.069Z,99232.72
2022-11-25T20:04:24.411Z,99233.22
2022-11-25T20:07:15.006Z,99234.84
2022-11-25T20:10:17.710Z,99237.25
2022-11-25T20:13:02.928Z,99234.53
2022-11-25T20:15:48.577Z,99243.28
2022-11-25T20:18:34.549Z,99245.69
2022-11-25T20:21:32.171Z,99247.28
2022-11-25T20:24:20.533Z,99252.06
2022-11-25T20:27:06.076Z,99253.66
2022-11-25T20:29:51.500Z,99260.00
2022-11-25T20:32:36.914Z,99270.34
2022-11-25T20:35:23.194Z,99261.31
2022-11-25T20:38:36.165Z,99274.75
2022-11-25T20:41:27.680Z,99281.16
2022-11-25T20:44:13.899Z,99283.94
2022-11-25T20:46:59.415Z,99292.66
2022-11-25T20:49:46.531Z,99293.47
2022-11-25T20:52:33.377Z,99293.09
2022-11-25T20:55:23.626Z,99299.84
2022-11-25T20:58:28.027Z,99291.91
2022-11-25T21:01:15.020Z,99293.53
2022-11-25T21:04:00.195Z,99296.75
2022-11-25T21:06:46.050Z,99300.72
2022-11-25T21:09:34.601Z,99304.69
2022-11-25T21:12:20.119Z,99312.66
2022-11-25T21:15:16.935Z,99313.84
2022-11-25T21:18:02.236Z,99316.25
2022-11-25T21:20:49.393Z,99314.69
2022-11-25T21:23:37.389Z,99323.78
2022-11-25T21:26:25.328Z,99329.34
2022-11-25T21:29:15.548Z,99321.44
2022-11-25T21:32:01.287Z,99325.41
2022-11-25T21:34:46.574Z,99328.59
2022-11-25T21:37:37.804Z,99331.38
2022-11-25T21:40:46.035Z,99336.53
2022-11-25T21:43:39.859Z,99342.53
2022-11-25T21:46:26.026Z,99334.59
2022-11-25T21:49:11.904Z,99335.44
2022-11-25T21:51:57.140Z,99344.53
2022-11-25T21:54:43.124Z,99342.97
2022-11-25T21:57:29.139Z,99352.09
2022-11-25T22:00:20.076Z,99353.28
2022-11-25T22:03:14.630Z,99352.50
2022-11-25T22:05:59.807Z,99360.03
2022-11-25T22:08:45.243Z,99358.06
2022-11-25T22:11:33.512Z,99361.22
2022-11-25T22:14:18.645Z,99365.19
2022-11-25T22:17:13.091Z,99370.00
2022-11-25T22:19:58.810Z,99370.38
2022-11-25T22:22:44.174Z,99377.13
2022-11-25T22:25:32.435Z,99377.13
2022-11-25T22:28:20.377Z,99383.88
2022-11-25T22:31:08.440Z,99383.88
2022-11-25T22:33:54.592Z,99393.03
2022-11-25T22:36:40.976Z,99395.78
2022-11-25T22:39:26.836Z,99396.97
2022-11-25T22:42:30.972Z,99406.50
2022-11-25T22:45:44.199Z,99400.97
2022-11-25T22:48:34.775Z,99406.50
2022-11-25T22:51:27.257Z,99408.91
2022-11-25T22:54:12.812Z,99421.56
2022-11-25T22:56:58.418Z,99420.00
2022-11-25T22:59:44.028Z,99425.53
2022-11-25T23:02:34.034Z,99433.09
2022-11-25T23:05:32.180Z,99434.28
2022-11-25T23:08:21.344Z,99427.16
2022-11-25T23:11:06.944Z,99431.91
2022-11-25T23:13:52.352Z,99434.31
2022-11-25T23:16:39.561Z,99435.88
2022-11-25T23:19:25.036Z,99436.28
2022-11-25T23:22:13.744Z,99440.66
2022-11-25T23:24:59.220Z,99437.09
2022-11-25T23:27:45.496Z,99431.53
2022-11-25T23:30:31.370Z,99441.03
2022-11-25T23:33:38.653Z,99437.50
2022-11-25T23:36:41.704Z,99441.44
2022-11-25T23:39:27.349Z,99445.03
2022-11-25T23:42:19.897Z,99455.75
2022-11-25T23:45:08.995Z,99455.75
2022-11-25T23:47:56.162Z,99460.06
2022-11-25T23:50:42.100Z,99454.53
2022-11-25T23:53:32.995Z,99455.75
2022-11-25T23:56:19.330Z,99462.84
2022-11-25T23:59:12.792Z,99460.06
